METARS
Date METAR Location Area
24/04/2016 LG1B 240830Z 20308KT 21/09 Q1002 Arsakeio Athens
30/04/2016 LGY7 301130Z 02305KT 23/12 Q1014 Aegina Attica
30/04/2016 LG0B 301130Z 33810KT 21/10 Q1013 Agia Paraskeui Attica
26/04/2016 LG37 261700Z 2706102G14796KT 169/78 Q10077 Agia Paraskeyi Attica
29/04/2016 LG5C 291030Z 22503KT 21/11 Q1016 Alimos Attica
23/04/2016 LGH5 230430Z 20301KT 17/10 Q1011 Ampelokipoi Attica
30/04/2016 LGS5 301130Z 02304KT 25/10 Q1013 Anavissos Attica
30/04/2016 LGO0 301130Z 04503KT 22/11 Q1015 Ano Liosia Attica
30/04/2016 LG9B 301130Z 33808KT 24/12 Q1014 Aspropirgos Attica
30/04/2016 LGB9 301130Z 04509KT 23/12 Q1015 Athens - Gazi Attica
30/04/2016 LGL5 301130Z 00010KT 20/11 Q1019 Ekali Attica
30/04/2016 LGS3 301130Z 06805KT 25/11 Q1014 Faliro Attica
30/04/2016 LGM3 301130Z 33803KT 22/13 Q1016 Hydra Attica
29/04/2016 LGI4 292000Z 00000G31104KT 193/103 Q10132 Hydra Attica
20/04/2016 LGO2 201530Z 00000KT 00/00 Q 0 Imittos Attica
30/04/2016 LGT8 301130Z 27001KT 18/11 Q1016 Ippokratios Attica
30/04/2016 LG99 301130Z 00005KT 23/12 Q1018 Kantza Attica
28/04/2016 LG13 281500Z 00000KT 21/09 Q1017 Kifissia Attica
30/04/2016 LG3C 301130Z 06806KT 24/11 Q1013 Korydallos Attica
30/04/2016 LGD6 301130Z 00014KT 20/12 Q1013 Lavrio Attica
30/04/2016 LGK0 301130Z 00008KT 22/11 Q1015 Marousi Attica
30/04/2016 LG00 301000Z 03004KT 20/10 Q1013 Marousi (Anavrita) Attica
30/04/2016 LGR0 301130Z 33805KT 24/11 Q1015 Nea Smirni Attica
30/04/2016 LGM8 301130Z 33803G14KT 24/12 Q1016 Neos Kosmos Attica
30/04/2016 LG6E 301130Z 02311G22KT 22/11 Q1013 Pallini Attica
28/04/2016 LGA3 280546Z 26001KT 05/03 Q1028 Pallini - Kantza 2 Attica
30/04/2016 LGK3 301130Z 00015KT 11/08 Q1014 Parnitha 1230 EAA Attica
30/04/2016 LGT6 301130Z 06803KT 24/12 Q1015 Patissia Attica
30/04/2016 LGX9 301130Z 09009G21KT 20/11 Q1013 Penteli Attica
30/04/2016 LG67 301200Z 0905238G15660KT 210/119 Q10147 Penteli Attica
30/04/2016 LG6D 301130Z 27003KT 24/12 Q1014 Perama Attica
30/04/2016 LGU0 301130Z 06808G19KT 23/11 Q1015 Peristeri Attica
30/04/2016 LG9C 301030Z 04509KT +RA 22/11 Q 25 Petroupoli Attica
30/04/2016 LGY6 301130Z 02314G26KT 21/11 Q1015 Porto Rafti Attica
30/04/2016 LG96 301130Z 04506KT 23/13 Q1015 Psychico Attica
30/04/2016 LGZ0 301130Z 02312KT 20/11 Q1014 Rafina Attica
30/04/2016 LG2B 301030Z 02310KT 24/11 Q1015 SEF Attica
30/04/2016 LGG2 301130Z 04512KT 22/11 Q1013 Spata Attica
30/04/2016 LGS6 301130Z 11308KT 22/14 Q1014 Spetses Attica
30/04/2016 LG3B 301130Z 06807G20KT 22/11 Q1016 Tatoi Attica
30/04/2016 LGZ2 301130Z 02310G22KT 24/10 Q1015 Vari Attica
30/04/2016 LGR6 301130Z 00005G16KT 19/10 Q1016 Vilia Attica
30/04/2016 LG1D 301130Z 00008KT 21/11 Q1015 Vrilissia Attica
30/04/2016 LG74 292300Z 00000KT 196/92 Q10123 Ymittos Attica
28/04/2016 LGG1 281530Z 1124320G9558KT 209/92 Q234 Kalivia Thorikou Attica E
30/04/2016 LG45 301130Z 09010G23KT 22/12 Q1017 Markopoulo Attica E
30/04/2016 LG72 292100Z 00000G31104KT 176/107 Q10107 Keratea Attica SE
30/04/2016 LGW4 301130Z 24803KT 19/12 Q 990 Ag. Ioannis Sfakion Crete
30/04/2016 LG7E 301130Z 33804KT 20/15 Q1013 Ag. Pantes - Chania Crete
30/04/2016 LGJ9 301130Z 06811KT 20/17 Q1008 Aghios Nikolaos Crete
30/04/2016 LGT4 301130Z 06810KT 21/14 Q1012 Alikianos Crete
30/04/2016 LGB6 301130Z 29307KT 14/13 Q1008 Anogeia Crete
30/04/2016 LGZ6 301130Z 00010KT 14/12 Q1013 Askyfou Crete
30/04/2016 LG25 301130Z 02308KT 25/15 Q1013 Chania Crete
30/04/2016 LGN3 301130Z 04508KT 20/15 Q1014 Chania Center Crete
30/04/2016 LG61 301130Z 33813KT 20/17 Q1011 Cost - Irakleio Crete
30/04/2016 LG2F 301130Z 31509KT 20/16 Q1012 East Heraclion Crete
30/04/2016 LG2C 301130Z 29303KT 18/13 Q1007 Elos Crete
30/04/2016 LGL9 301130Z 31514G25KT 22/13 Q1010 Falasarna Crete
30/04/2016 LG9A 300830Z 31511KT 21/15 Q1008 Finokalia - Lasithi Crete
30/04/2016 LGL1 301130Z 31522G34KT 18/13 Q1007 Fourfouras Crete
30/04/2016 LGD4 301130Z 00010KT 18/15 Q1011 Fragmapotamon - Rethymno Crete
30/04/2016 LG30 301130Z 31508KT 20/16 Q1011 Heraklion - Knossos Crete
30/04/2016 LG95 301130Z 09008G23KT 25/15 Q1009 Ierapetra Crete
30/04/2016 LGP0 301130Z 15802KT 24/17 Q1008 Lentas Hrakleion Crete
29/04/2016 LGD7 291830Z 11310KT 20/03 Q1011 Metaxochori - Heraklion Crete
30/04/2016 LGI2 301130Z 29305KT 26/15 Q1008 Mires Crete
30/04/2016 LG36 301130Z 02311G26KT 24/14 Q1008 Paleochora Crete
30/04/2016 LG8A 301130Z 06806G17KT 21/15 Q1008 Pirathi Heraklion Crete
30/04/2016 LG3E 301130Z 02306KT 21/17 Q1013 Platanias (Chania) Crete
30/04/2016 LG58 301130Z 00006KT 20/16 Q1011 Rethymno Crete
21/04/2016 LGT2 211130Z 06825G46KT 21/11 Q1019 Rethymno - Plakia Crete
30/04/2016 LGY1 301130Z 27003KT 24/11 Q1010 Samaria Crete
30/04/2016 LGB4 301130Z 00004KT 12/11 Q1010 Samaria Crete
29/04/2016 LG9D 292230Z 20303KT 23/05 Q1007 Sebrona Crete
30/04/2016 LGM2 301130Z 33805KT 24/16 Q1008 Sitia Crete
29/04/2016 LG75 291630Z 18004KT 24/M02 Q1011 Spili - Rethymnon Crete
30/04/2016 LG8B 301130Z 31510KT 19/15 Q1011 Stavrakia - Heraclion Crete
30/04/2016 LG50 301130Z 33804KT 17/13 Q1008 Tzermiado Lasithi Crete
30/04/2016 LG7B 301130Z 00013KT 24/14 Q1008 Vagionia - Heraklion Crete
30/04/2016 LG70 301130Z 29304KT 21/14 Q1012 Vrysses Crete
30/04/2016 LGT5 301130Z 02308KT 22/15 Q1012 Amorgos Cyclades
30/04/2016 LGN6 301130Z 04515KT 21/13 Q1014 Andros Cyclades
29/04/2016 LGS7 290530Z 27001KT 19/13 Q1016 Donoussa Cyclades
30/04/2016 LGI0 301130Z 00020KT 21/13 Q1012 Ios Cyclades
30/04/2016 LGP2 301130Z 33810KT 18/10 Q1017 Ioulida - Kea Cyclades
30/04/2016 LGP5 301130Z 04510KT 22/13 Q1012 Iraklia Cyclades
30/04/2016 LGE3 301130Z 00013G24KT 19/13 Q1015 Kea Cyclades
30/04/2016 LGX8 301130Z 00012KT 22/14 Q1013 Koufonissia Cyclades
30/04/2016 LGS0 301130Z 04510KT 20/15 Q1015 Milos Cyclades
30/04/2016 LG66 301130Z 02326G38KT 18/14 Q1013 Mykonos Cyclades
30/04/2016 LGM0 301130Z 00015KT 20/15 Q1014 Naxos Cyclades
29/04/2016 LGV3 290530Z 06801KT 16/05 Q1014 Naxos - Apiranthos Cyclades
30/04/2016 LGT0 301130Z 31510G21KT 19/14 Q1015 Naxos - Apollonas Cyclades
30/04/2016 LGU1 301130Z 02306G17KT 22/09 Q1013 Naxos - Damarionas Cyclades
30/04/2016 LGU2 301130Z 04510KT 16/10 Q1013 Naxos - Koronos Cyclades
30/04/2016 LGN7 301130Z 29303KT 19/13 Q1013 Naxos - Kynidaros Cyclades
30/04/2016 LGW1 301130Z 33810G22KT 19/14 Q1013 Naxos - Melanes Cyclades
30/04/2016 LGO7 301130Z 02323KT 20/15 Q1013 Naxos - Mikri Vigla Cyclades
30/04/2016 LG02 301130Z 02318G29KT 22/12 Q1013 Paros Cyclades
30/04/2016 LGX5 301130Z 04516KT 21/15 Q1011 Santorini Cyclades
25/04/2016 LGX7 251030Z 24809KT 20/14 Q1005 Schinoussa Cyclades
17/06/2015 LG07 171930Z 00000KT 261/94 Q10040 Tinos Cyclades
30/04/2016 LGB8 301130Z 00013G25KT 20/14 Q1013 Tinos NOA Cyclades
30/04/2016 LGAB 301130Z 11316KT 22/02 Q1009 Emponas - Rhodes Dodecanese
30/04/2016 LGG6 301130Z 09002KT 25/11 Q1013 Kalymnos Dodecanese
30/04/2016 LGAC 301130Z 09008KT 23/14 Q1010 Kattavia - Rhodes Dodecanese
30/04/2016 LGAA 301130Z 33805KT 22/18 Q1012 Lindos - Rhodes Dodecanese
30/04/2016 LG65 301130Z 31508KT 23/15 Q1012 Patmos Dodecanese
30/04/2016 LGS9 301130Z 11306KT 22/17 Q1014 Rhodes Dodecanese
28/04/2016 LGM5 281330Z 11308KT 17/12 Q1021 Kasos Dodecanisa
30/04/2016 LGX1 301130Z 09005KT 24/14 Q1012 Kos Dodekanissa
11/04/2016 LG4A 111330Z 29304KT 18/10 Q1007 Chios East Aegean
30/04/2016 LG6C 301130Z 00009KT 24/07 Q1013 Chios Town East Aegean
30/04/2016 LGT1 301130Z 31507KT 22/14 Q1012 Fournoi East Aegean
30/04/2016 LGI9 301130Z 04502KT 21/10 Q1012 Ikaria East Aegean
30/04/2016 LGI5 301130Z 02314KT 21/12 Q1015 Lemnos East Aegean
23/04/2016 LGI6 231330Z 29304KT 21/12 Q1008 Lesvos East Aegean
30/04/2016 LGJ3 301130Z 00006KT 20/13 Q1016 Lesvos - Thermi East Aegean
20/04/2016 LGZ7 201530Z 33807KT 18/07 Q1018 Mantamados East Aegean
30/04/2016 LGY5 301130Z 29302KT 21/12 Q1016 Molyvos East Aegean
30/04/2016 LGF1 301130Z 33802KT 25/11 Q1012 Samos East Aegean
30/04/2016 LG2D 301130Z 27004KT 23/12 Q1014 Agia Paraskeui Lesvos East Aegen
30/04/2016 LGW7 301130Z 33825KT 18/11 Q1001 Akrotirio Paksimada Evia
28/04/2016 LGO3 281030Z 02304KT 24/07 Q1015 Chalkida Evia
30/04/2016 LGR5 301030Z 29301KT 14/13 Q1016 Kavodoro Evia
09/04/2016 LGY0 090700Z 11300KT 09/05 Q1034 Krieza Evia
30/04/2016 LGX0 301130Z 00006KT 18/13 Q1018 Kymi Evia
30/04/2016 LGT7 301030Z 09003KT 16/09 Q1016 Setta Evia
30/04/2016 LG81 301130Z 04511KT 17/11 Q1015 Steni Evia
30/04/2016 LGC4 301130Z 04511KT 20/13 Q1016 Styra Evia
30/04/2016 LGD3 301130Z 06809KT 19/14 Q1016 Zarakes Evia
30/04/2016 LGP6 301030Z 27003KT 21/12 Q1015 Agia Kyriaki Ioanninon Hepirus
30/04/2016 LGO1 301130Z 24802KT 20/13 Q1017 Aridaia Hepirus
30/04/2016 LGD2 301130Z 24803KT 25/14 Q1013 Arta - Kompoti Hepirus
29/04/2016 LG38 291930Z 11300KT 17/15 Q1013 Arta - Vlacherna Hepirus
30/04/2016 LGE4 301130Z 20302KT 19/12 Q1014 Aspraggeloi Hepirus
30/04/2016 LGI3 301130Z 24801KT 22/11 Q1014 Derviziana Hepirus
30/04/2016 LGP4 301130Z 29302KT 21/10 Q1013 Dodoni Hepirus
02/04/2016 LGL8 021430Z 02304KT 24/07 Q1015 Grammos Hepirus
30/04/2016 LG49 301030Z 13501KT 22/12 Q1012 Ioannina Anatoli Hepirus
30/04/2016 LGK1 301130Z 31500KT 21/15 Q1014 Kanali, Preveza Hepirus
30/04/2016 LG1F 301030Z 24803KT 20/15 Q1014 Karavostasi Hepirus
30/04/2016 LGE0 301130Z 24803KT 19/10 Q1015 Katarraktis - Arta Hepirus
30/04/2016 LGO5 300830Z 11303KT 17/07 Q1015 Kerasovo Konitsa Hepirus
30/04/2016 LG3A 301130Z 22503KT 24/11 Q1014 Konitsa Hepirus
29/04/2016 LGO8 291330Z 04501KT 14/08 Q1013 Metsovo Hepirus
30/04/2016 LGK6 300830Z 15801KT 16/11 Q1016 Papigo Hepirus
30/04/2016 LGF6 300830Z 09006KT 18/11 Q1014 Paramythia Hepirus
30/04/2016 LGK9 301130Z 22503KT 23/14 Q1015 Parga Hepirus
26/04/2016 LGK7 260430Z 00003KT 05/03 Q1006 Pesta Hepirus
30/04/2016 LGY9 301130Z 20302KT 17/07 Q1025 Plikati Ioanninon Hepirus
30/04/2016 LGP1 301130Z 02302KT 21/11 Q1015 Pramanta Hepirus
30/04/2016 LGK2 301030Z 13503KT 18/10 Q1014 Theodoriana, Arta Hepirus
30/04/2016 LGD0 301130Z 31502KT 20/09 Q1013 Tristeno - Ioannina Hepirus
30/04/2016 LGM4 301130Z 02302KT 23/11 Q1013 Tyria Hepirus
30/04/2016 LGR8 301130Z 20301KT 21/10 Q1014 Vourgareli Artas Hepirus
30/04/2016 LGN9 301030Z 33802KT 17/07 Q1015 Vovoussa Hepirus
30/04/2016 LGN0 301130Z 18001KT 20/15 Q1014 Zitsa Hepirus
30/04/2016 LGJ2 301130Z 04503KT 23/14 Q1014 Corfu - Gouvia Ionio
29/04/2016 LGB0 290030Z 00000KT 15/13 Q1016 Ithaki Ionio
30/04/2016 LGI7 301130Z 29311KT 20/16 Q1015 Lefkada Ionio
30/04/2016 LGN1 301130Z 29306KT 21/13 Q1013 Paxoi Ionio
30/04/2016 LGN4 301130Z 00001KT 25/14 Q1013 Zakynthos Ionio
28/04/2016 LGG9 280730Z 00000KT 00/00 Q 0 Amynteo Macedonia
30/04/2016 LG33 300430Z 09001KT 12/09 Q1016 Chalkidiki - Polygyros Macedonia
23/03/2016 LGJ1 231530Z 04501KT 15/13 Q 994 Chalkidiki - Stratoni Macedonia
30/04/2016 LGZ5 301130Z 02305KT 20/11 Q1017 Didymoteicho Macedonia
30/04/2016 LG55 301130Z 15807KT 24/16 Q1016 Dion Macedonia
30/04/2016 LGU8 301130Z 18003KT 22/13 Q1017 Doxato - Drama Macedonia
30/04/2016 LGH3 301150Z 16802KT 22/12 Q1016 Drama Macedonia
30/04/2016 LGH6 301130Z 24803KT 20/12 Q1016 Drama 2 Macedonia
30/04/2016 LGY3 301130Z 11304KT 22/09 Q1017 Eleutheroupoli Macedonia
18/04/2016 LGJ6 181050Z 16812KT 08/02 Q1011 Falakro Macedonia
30/04/2016 LG63 301130Z 06800KT 18/11 Q1019 Florina Macedonia
30/04/2016 LGZ8 301130Z 00000KT 23/12 Q1017 Fotolivos Macedonia
30/04/2016 LG73 301130Z 15803KT 23/13 Q1016 Giannitsa Macedonia
30/04/2016 LGF2 301130Z 22502KT 21/12 Q1014 Grevena Macedonia
30/04/2016 LGO4 301130Z 09009KT 17/11 Q1017 Hmathia - Rizomata Macedonia
30/04/2016 LG7D 301130Z 27001KT 19/05 Q1016 Iera Moni Megistis Lauras Macedonia
30/04/2016 LG93 301130Z 06802KT 05/03 Q1020 Kaimaktsalan Macedonia
30/04/2016 LG4D 301130Z 22504KT 22/12 Q1016 Kalampaki Drama Macedonia
30/04/2016 LGO9 301130Z 06804KT 20/12 Q1016 Kassandreia (Xalkidiki) Macedonia
30/04/2016 LGC0 301130Z 09001KT 19/10 Q1014 Kastoria Macedonia
30/04/2016 LG27 301150Z 13902KT 20/08 Q1018 Kavala - Dexameni Macedonia
30/04/2016 LG5D 301030Z 09001KT 14/11 Q1019 Kerasia Edessas Macedonia
30/04/2016 LG42 301130Z 24800KT 19/13 Q1016 Kilkis Macedonia
23/04/2016 LGW8 232130Z 00000KT 14/12 Q1005 Kimisi Macedonia
30/04/2016 LGJ4 301130Z 04502KT 19/12 Q1017 Kozani - Ardassa Macedonia
30/04/2016 LGP3 301130Z 15800KT 08/07 Q1018 Lailias - Serres Macedonia
30/04/2016 LGZ9 301130Z 33803KT 19/09 Q1016 Mavropigi Macedonia
30/04/2016 LG3D 301130Z 22503KT 22/12 Q1017 Mikrokampos Drama Macedonia
30/04/2016 LG1E 301130Z 24804KT 17/10 Q1015 Moni Simonos Petras Macedonia
30/04/2016 LG40 301130Z 06800KT 18/12 Q1018 Naousa Macedonia
30/04/2016 LG4B 301130Z 15805KT 21/11 Q1017 Nea Peramos Macedonia
30/04/2016 LGZ4 301130Z 20303KT 22/14 Q1017 Neos Marmaras Macedonia
30/04/2016 LG48 301130Z 24803KT 18/11 Q1016 Nevrokopi Drama Macedonia
30/04/2016 LGS4 301130Z 33801KT 17/08 Q1015 Notio Pedio - Eordea Macedonia
30/04/2016 LGW0 301130Z 18002KT 22/11 Q1017 Paranesti Macedonia
30/04/2016 LG26 301130Z 09003KT 20/10 Q1013 Ptolemaida Macedonia
30/04/2016 LG87 301130Z 09003KT 08/07 Q1017 Seli Ski Center Macedonia
30/04/2016 LGW6 301030Z 18002KT 20/14 Q1018 Serres Macedonia
29/04/2016 LGD9 292130Z 00000KT 12/11 Q1018 Serres - Kerkini Macedonia
30/04/2016 LG14 292130Z 00000G31104KT 119/116 Q10164 Serres - Proti Macedonia
28/04/2016 LG5B 280530Z 04502KT 14/10 Q1017 Thasos Macedonia
30/04/2016 LGR9 301130Z 22505KT 22/16 Q1017 Thessaloniki Macedonia
30/04/2016 LGF0 301130Z 04501KT 19/13 Q1014 Variko Macedonia
30/04/2016 LGC2 301130Z 04505KT 20/11 Q1016 Vatopedi - Athos Macedonia
30/04/2016 LGE9 301130Z 11308KT 17/12 Q1018 Vegoritida Macedonia
30/04/2016 LGE5 301130Z 27000KT 22/13 Q1015 Veroia Macedonia
30/04/2016 LG98 301030Z 02304KT 13/09 Q1016 Vlasti - Kozani Macedonia
30/04/2016 LGF5 301201Z 15602KT 14/09 Q1019 Vounochori - Kavala Macedonia
30/04/2016 LG2E 301130Z 06803KT 23/13 Q1012 Achaia Peloponissos
30/04/2016 LGU5 301130Z 13505KT 22/13 Q1015 Agioi Theodoroi Peloponissos
30/04/2016 LGU7 301130Z 18002KT 24/09 Q1011 Alagonia - Messinia Peloponissos
30/04/2016 LG52 301130Z 33805KT 25/15 Q1011 Amaliada Peloponissos
30/04/2016 LG77 301130Z 27002KT 23/12 Q1012 Andritsaina Peloponissos
30/04/2016 LGU6 301130Z 20304KT 29/11 Q1014 Arfara - Messinia Peloponissos
30/04/2016 LGT3 301130Z 13504KT 26/12 Q1014 Argos Peloponissos
29/04/2016 LGV0 291530Z 11304KT 23/10 Q1011 Derveni Peloponissos
30/04/2016 LG5E 301130Z 02303KT 26/10 Q1015 Didyma Peloponissos
28/04/2016 LGK4 280630Z 15801KT -RA 03/02 Q1021 Elati Peloponissos
30/04/2016 LG8E 301130Z 29305KT 23/17 Q1013 Filiatra Peloponissos
30/04/2016 LGC3 301130Z 22500KT 25/11 Q1011 Foloi - Ilia Peloponissos
30/04/2016 LGX6 301130Z 04510KT 25/09 Q1013 Geraki Peloponissos
30/04/2016 LGB7 301130Z 33807KT 24/13 Q1012 Ilia - Vartholomio Peloponissos
30/04/2016 LG85 301130Z 31504KT 22/12 Q1013 Isthmos Peloponissos
30/04/2016 LG6A 301030Z 18006KT 22/15 Q1013 Kalamata Peloponissos
30/04/2016 LGZ3 301030Z 18006KT 20/15 Q1011 Kardamyli Peloponissos
30/04/2016 LG0C 301130Z 29303KT 26/12 Q1011 Kastritsi Peloponissos
30/04/2016 LGJ5 301130Z 31510KT 21/16 Q1012 Katakolo Peloponissos
30/04/2016 LGP7 301130Z 18002KT 21/11 Q1013 03 Kato Vlassia Peloponissos
27/04/2016 LGB2 272000Z 20301KT 27/23 Q1011 Katoachaia Peloponissos
30/04/2016 LGB5 301130Z 00017G28KT 20/10 Q1013 Kavomalias Peloponissos
30/04/2016 LG8D 301130Z 09008KT 23/14 Q1014 Kiato Peloponissos
30/04/2016 LGM7 301130Z 18003KT 25/12 Q1015 Kranidi Peloponissos
30/04/2016 LG0D 301130Z 04504KT 17/10 Q1014 Kryoneri Peloponissos
30/04/2016 LGV1 301130Z 24804KT 23/17 Q1013 Kyparissia Peloponissos
30/04/2016 LGW9 301130Z 18003KT 21/06 Q1012 Lagadia Peloponissos
30/04/2016 LG0A 301130Z 18003KT 22/09 Q1013 Lampia - Ilia Peloponissos
30/04/2016 LG92 301130Z 00005KT 24/15 Q1011 Lappa-Larissos-Achaia Peloponissos
24/04/2016 LG4C 241430Z 27009KT 15/05 Q1002 Levidi Peloponissos
07/04/2016 LG91 070630Z 00000KT 21/15 Q1012 Lousika-Olenias-Achaia Peloponissos
30/04/2016 LGV4 301130Z 02307KT 18/10 Q1013 Lykochia Peloponissos
30/04/2016 LGG5 301130Z 04502KT 26/09 Q1012 Megalopoli Peloponissos
30/04/2016 LGV2 301130Z 29301KT 24/09 Q1013 Messinia - Kopanaki Peloponissos
30/04/2016 LGF8 301130Z 06808KT 26/09 Q1012 Molaoi Peloponissos
30/04/2016 LG56 301130Z 02314KT 21/12 Q1014 Monemvasia Peloponissos
30/04/2016 LGE1 301130Z 02308KT 22/12 Q1013 Nemea Peloponissos
30/04/2016 LGD5 301130Z 27003KT 27/14 Q1012 Oleni - Ilia Peloponissos
20/04/2016 LGB3 200430Z 00000KT 12/09 Q1012 Olympia Peloponissos
23/04/2016 LGV6 231330Z 22510KT 11/06 Q1008 Panachaiko Oros Peloponissos
30/04/2016 LGZ1 301130Z 09011KT 25/12 Q1011 Patra Peloponissos
29/04/2016 LG79 290000Z 00000KT 167/106 Q10162 Patra - Agia Peloponissos
30/04/2016 LG71 301200Z 0006102G11286KT 273/140 Q10117 Patra - Drosia Peloponissos
30/04/2016 LG84 301130Z 02317KT 23/14 Q1012 Patra - Port Peloponissos
30/04/2016 LGG7 301130Z 29305KT 25/13 Q1012 Pinia Peloponissos
30/04/2016 LG59 301030Z 29303KT 27/14 Q1011 Pirgos Peloponissos
30/04/2016 LGH8 301130Z 04510KT 22/14 Q1013 Rio Peloponissos
30/04/2016 LGT9 301130Z 29303KT 25/10 Q1011 Romanos - Patra Peloponissos
30/04/2016 LGA0 301130Z 04508KT 23/15 Q1011 Sagaiika Peloponissos
30/04/2016 LGF7 301130Z 13508KT 28/11 Q1014 Sparti Peloponissos
30/04/2016 LGS2 301130Z 22502KT 21/07 Q1013 Stemnitsa Peloponissos
30/04/2016 LGR1 301130Z 04503KT 15/09 Q1013 Trikala Korinthias Peloponissos
30/04/2016 LG83 301130Z 09004G17KT 22/11 Q1014 Tripoli Peloponissos
30/04/2016 LGU9 301130Z 11301KT 19/09 Q1013 Vytina Peloponissos
30/04/2016 LG86 301130Z 27003KT 27/16 Q1012 Zaxaro Peloponissos
30/04/2016 LGN2 301130Z 29306KT 18/14 Q1019 Alonissos Sporades
30/04/2016 LGI1 301130Z 33812KT 20/09 Q1016 Skyros Sporades
30/04/2016 LGH9 301130Z 09005KT 26/12 Q1015 Agrinio Sterea Ellada
30/04/2016 LGC7 301130Z 22503KT 26/16 Q1013 Aitoliko Sterea Ellada
30/04/2016 LG29 301030Z 02300KT 19/12 Q1016 Amfiklia Sterea Ellada
30/04/2016 LGH1 300350Z 00000KT 134/100 Q10153 Amfiklia 2 Sterea Ellada
30/04/2016 LG9E 301030Z 29303KT 23/15 Q1014 Amfilochia Sterea Ellada
30/04/2016 LGG8 301130Z 02311KT 21/13 Q1017 Antikira Sterea Ellada
30/04/2016 LG97 301210Z 09011KT 15/10 Q1014 Arachova Sterea Ellada
30/04/2016 LGC5 301030Z 11308KT 15/11 Q1016 Arahova Sterea Ellada
27/04/2016 LGH0 271430Z 09008KT 20/10 Q1012 Avlida Sterea Ellada
30/04/2016 LGR2 301130Z 09009KT 21/11 Q1013 Dam of Mornos Sterea Ellada
30/04/2016 LGR3 301130Z 27001KT 22/11 Q1015 Diakopi of Lidoriki Sterea Ellada
30/04/2016 LGW5 301130Z 09001KT 18/13 Q1016 Domokos Sterea Ellada
14/04/2016 LG21 141323Z 24804KT 29/15 Q1014 Evia - Chalkida Sterea Ellada
30/04/2016 LGY4 301030Z 13512KT 19/14 Q1015 Galaxidi Sterea Ellada
30/04/2016 LG4E 301130Z 31502KT 26/15 Q1011 Gavalous Sterea Ellada
30/04/2016 LGJ7 301130Z 02303KT 19/11 Q1017 Kaparelli Sterea Ellada
30/04/2016 LGC9 301130Z 09003KT 19/11 Q1016 Karpenisi Sterea Ellada
30/04/2016 LGP9 301130Z 00003KT 20/11 Q1013 Kleidi Viotias Sterea Ellada
30/04/2016 LGR4 301130Z 02308KT 16/09 Q1015 Koniakos of Lidoriki Sterea Ellada
30/04/2016 LGV9 301130Z 06803KT 20/13 Q1016 Lamia Sterea Ellada
30/04/2016 LGI8 301130Z 00002KT 21/12 Q1016 Livadeia Sterea Ellada
30/04/2016 LGE7 301130Z 09003KT 22/15 Q1014 Makrakomi Sterea Ellada
30/04/2016 LGA6 301130Z 09004KT 12/08 Q1019 Mavrolithari - Vardousia Sterea Ellada
30/04/2016 LGK8 301130Z 06810KT 14/10 Q1013 Myriki Sterea Ellada
28/04/2016 LGG4 281030Z 29303KT 18/06 Q1017 Orini Nafpaktia Sterea Ellada
20/04/2016 LGA4 200900Z 22502G16KT 01/01 Q1009 Parnassos Sterea Ellada
30/04/2016 LGL0 301130Z 29302KT 19/12 Q1016 Polydroso Sterea Ellada
07/04/2016 LGR7 071230Z 04508KT 11/09 Q1025 Prasino - Viotia Sterea Ellada
30/04/2016 LG69 301130Z 02305KT 22/11 Q1015 Tanagra Sterea Ellada
30/04/2016 LGO6 301130Z 04502KT 22/14 Q1017 Theologos Sterea Ellada
27/04/2016 LG94 262300Z 00000KT 84/20 Q10138 Hortiatis Thes/niki
30/04/2016 LG15 301211Z 20904KT 00/M20 Q929 Kamara Thes/niki Thes/niki
30/04/2016 LGA5 301130Z 09001KT 21/13 Q1017 Lagadas Thes/niki
30/04/2016 LG7C 301130Z 22504KT 20/15 Q1017 Nea Michaniona Thes/niki
30/04/2016 LG8C 301130Z 22503KT 24/13 Q1017 Sindos Thes/niki
24/04/2016 LG11 240730Z 12901KT 10/06 Q1006 West Thes/niki Thes/niki
30/04/2016 LGV5 300230Z 13503KT 11/10 Q1013 Tsamantas Thesprotia
26/04/2016 LGL4 261730Z 13501KT 04/01 Q1031 Gardiki Thessalia
30/04/2016 LGW3 301130Z 20303KT 22/13 Q1014 Kalabaka Thessalia
27/04/2016 LG2A 270530Z 33803KT 10/03 Q1016 Karditsa Thessalia
30/04/2016 LGL6 301130Z 04500KT 22/12 Q1015 Larissa Thessalia
19/12/2015 LG41 192110Z 00000G1728KT 53/20 Q10283 Larissa Thessalia
02/03/2016 LGU3 021420Z 00000G2592KT 189/60 Q10036 Larissa Thessalia
30/04/2016 LGS8 301130Z 06810KT 20/12 Q1017 Larissa - Agia Thessalia
30/04/2016 LGL7 301130Z 04504KT 15/13 Q1013 Limni Plastira Thessalia
30/04/2016 LG6B 301130Z 06809KT 19/12 Q1014 Moni Paou Thessalia
26/04/2016 LGU4 260700Z 29304KT 04/M07 Q1013 Olympos Thessalia
30/04/2016 LG7A 301200Z 0006102G9558KT 211/135 Q10165 Pedio Areos Volou Thessalia
30/04/2016 LGE2 301130Z 09002KT 13/08 Q1015 Pertouli Thessalia
13/04/2016 LGY2 130730Z 13501KT 19/10 Q1014 Portaria - Pelio Thessalia
30/04/2016 LG80 301130Z 00004KT 19/14 Q1019 Skopelos - Sporades Thessalia
30/04/2016 LG24 301130Z 02306KT 19/15 Q1017 Sporades - Skiathos Thessalia
30/04/2016 LG57 301130Z 11301KT 21/14 Q1016 Trikala Thessalia
30/04/2016 LG51 301130Z 18005KT 21/15 Q1016 Volos Thessalia
30/04/2016 LGG3 301130Z 04503KT 16/11 Q1019 Zagora EAA Thessalia
30/04/2016 LGD8 301130Z 06805KT 21/11 Q1016 Alexandroupolis Thraki
30/04/2016 LGM9 301130Z 13503KT 18/11 Q1016 Imeros Thraki
07/04/2016 LG35 071610Z 21401KT 23/11 Q1009 Komotini Thraki
30/04/2016 LGL2 301130Z 02303KT 21/10 Q1017 Metaxades - Evros Thraki
30/04/2016 LG31 301130Z 04501G12KT 21/10 Q1016 Orestiada Thraki
30/04/2016 LGC1 301130Z 18007KT 22/10 Q1017 Samothraki Thraki
30/04/2016 LGC6 301130Z 15805KT 21/11 Q1016 Xanthi Thraki
www.meteorologia.gr